createdAt,value
2023-01-17T00:00:04.548Z,5.57
2023-01-17T00:01:04.521Z,5.58
2023-01-17T00:02:04.510Z,5.65
2023-01-17T00:03:04.563Z,5.61
2023-01-17T00:04:04.532Z,5.59
2023-01-17T00:05:04.483Z,5.54
2023-01-17T00:06:04.469Z,5.65
2023-01-17T00:07:04.452Z,5.66
2023-01-17T00:08:04.442Z,5.67
2023-01-17T00:09:04.434Z,5.59
2023-01-17T00:10:04.422Z,5.51
2023-01-17T00:11:04.415Z,5.58
2023-01-17T00:12:04.405Z,5.54
2023-01-17T00:13:04.384Z,5.59
2023-01-17T00:14:04.380Z,5.55
2023-01-17T00:15:04.385Z,5.47
2023-01-17T00:16:04.376Z,5.51
2023-01-17T00:17:04.348Z,5.57
2023-01-17T00:18:04.331Z,5.59
2023-01-17T00:19:04.326Z,5.62
2023-01-17T00:20:04.324Z,5.58
2023-01-17T00:21:04.306Z,5.62
2023-01-17T00:22:04.291Z,5.61
2023-01-17T00:23:04.287Z,5.59
2023-01-17T00:24:04.270Z,5.66
2023-01-17T00:25:04.270Z,5.50
2023-01-17T00:26:04.259Z,5.65
2023-01-17T00:27:04.237Z,5.52
2023-01-17T00:28:04.235Z,5.54
2023-01-17T00:29:04.213Z,5.54
2023-01-17T00:30:04.205Z,5.48
2023-01-17T00:31:04.253Z,5.67
2023-01-17T00:32:04.186Z,5.55
2023-01-17T00:33:04.173Z,5.59
2023-01-17T00:34:04.165Z,5.58
2023-01-17T00:35:04.150Z,5.43
2023-01-17T00:36:04.154Z,5.54
2023-01-17T00:37:04.130Z,5.55
2023-01-17T00:38:04.119Z,5.54
2023-01-17T00:39:04.110Z,5.57
2023-01-17T00:40:04.102Z,5.54
2023-01-17T00:41:04.091Z,5.51
2023-01-17T00:42:04.076Z,5.54
2023-01-17T00:43:04.059Z,5.44
2023-01-17T00:44:04.054Z,5.51
2023-01-17T00:45:04.042Z,5.48
2023-01-17T00:46:04.028Z,5.54
2023-01-17T00:47:04.021Z,5.50
2023-01-17T00:48:04.022Z,5.51
2023-01-17T00:49:04.014Z,5.57
2023-01-17T00:50:03.995Z,5.52
2023-01-17T00:51:03.977Z,5.51
2023-01-17T00:52:03.964Z,5.57
2023-01-17T00:53:03.955Z,5.50
2023-01-17T00:54:03.943Z,5.54
2023-01-17T00:55:03.953Z,5.61
2023-01-17T00:56:03.924Z,5.55
2023-01-17T00:57:03.926Z,5.50
2023-01-17T00:58:03.908Z,5.57
2023-01-17T00:59:03.891Z,5.44
2023-01-17T01:00:03.872Z,5.55
2023-01-17T01:01:03.994Z,5.58
2023-01-17T01:02:03.956Z,5.47
2023-01-17T01:03:03.856Z,5.44
2023-01-17T01:04:03.829Z,5.57
2023-01-17T01:05:03.828Z,5.57
2023-01-17T01:06:03.813Z,5.50
2023-01-17T01:07:03.804Z,5.52
2023-01-17T01:08:03.794Z,5.61
2023-01-17T01:09:03.793Z,5.41
2023-01-17T01:10:03.778Z,5.57
2023-01-17T01:11:03.761Z,5.57
2023-01-17T01:12:03.744Z,5.55
2023-01-17T01:13:03.734Z,5.51
2023-01-17T01:14:03.728Z,5.57
2023-01-17T01:15:03.718Z,5.51
2023-01-17T01:16:03.731Z,5.44
2023-01-17T01:17:03.695Z,5.54
2023-01-17T01:18:03.691Z,5.50
2023-01-17T01:19:03.665Z,5.54
2023-01-17T01:20:03.674Z,5.44
2023-01-17T01:21:03.651Z,5.47
2023-01-17T01:22:03.634Z,5.37
2023-01-17T01:23:03.635Z,5.52
2023-01-17T01:24:03.611Z,5.47
2023-01-17T01:25:03.611Z,5.50
2023-01-17T01:26:03.597Z,5.41
2023-01-17T01:27:03.589Z,5.43
2023-01-17T01:28:03.573Z,5.58
2023-01-17T01:29:03.565Z,5.48
2023-01-17T01:30:03.552Z,5.43
2023-01-17T01:31:03.544Z,5.51
2023-01-17T01:32:03.532Z,5.40
2023-01-17T01:33:03.516Z,5.37
2023-01-17T01:34:03.501Z,5.43
2023-01-17T01:35:03.492Z,5.34
2023-01-17T01:36:03.487Z,5.43
2023-01-17T01:37:03.473Z,5.39
2023-01-17T01:38:03.459Z,5.43
2023-01-17T01:39:03.446Z,5.43
2023-01-17T01:40:03.437Z,5.41
2023-01-17T01:41:03.430Z,5.43
2023-01-17T01:42:03.414Z,5.41
2023-01-17T01:43:03.411Z,5.36
2023-01-17T01:44:03.395Z,5.37
2023-01-17T01:45:03.387Z,5.41
2023-01-17T01:46:03.420Z,5.30
2023-01-17T01:47:03.362Z,5.30
2023-01-17T01:48:03.354Z,5.30
2023-01-17T01:49:03.347Z,5.25
2023-01-17T01:50:03.351Z,5.16
2023-01-17T01:51:03.321Z,5.16
2023-01-17T01:52:03.313Z,5.19
2023-01-17T01:53:03.311Z,5.21
2023-01-17T01:54:03.295Z,5.15
2023-01-17T01:55:03.283Z,5.19
2023-01-17T01:56:03.272Z,5.11
2023-01-17T01:57:03.257Z,5.16
2023-01-17T01:58:03.256Z,5.14
2023-01-17T01:59:03.230Z,5.11
2023-01-17T02:00:03.226Z,5.06
2023-01-17T02:01:03.275Z,5.12
2023-01-17T02:02:03.198Z,5.09
2023-01-17T02:03:03.191Z,5.04
2023-01-17T02:04:03.205Z,5.03
2023-01-17T02:05:04.905Z,5.07
2023-01-17T02:06:03.155Z,5.09
2023-01-17T02:07:03.143Z,5.16
2023-01-17T02:08:03.133Z,5.01
2023-01-17T02:09:03.123Z,5.03
2023-01-17T02:10:03.110Z,5.09
2023-01-17T02:11:03.117Z,5.04
2023-01-17T02:12:03.094Z,5.07
2023-01-17T02:13:03.073Z,5.06
2023-01-17T02:14:03.063Z,5.18
2023-01-17T02:15:03.056Z,5.04
2023-01-17T02:16:03.088Z,5.18
2023-01-17T02:17:03.032Z,5.01
2023-01-17T02:18:03.029Z,5.11
2023-01-17T02:19:03.019Z,5.00
2023-01-17T02:20:02.998Z,5.12
2023-01-17T02:21:02.999Z,5.12
2023-01-17T02:22:03.011Z,5.07
2023-01-17T02:23:02.967Z,5.04
2023-01-17T02:24:02.954Z,5.06
2023-01-17T02:25:02.942Z,4.98
2023-01-17T02:26:02.936Z,5.11
2023-01-17T02:27:02.917Z,5.11
2023-01-17T02:28:02.907Z,5.06
2023-01-17T02:29:02.898Z,5.04
2023-01-17T02:30:02.891Z,5.12
2023-01-17T02:31:02.876Z,5.11
2023-01-17T02:32:02.858Z,5.01
2023-01-17T02:33:02.853Z,5.03
2023-01-17T02:34:02.843Z,5.03
2023-01-17T02:35:02.839Z,5.04
2023-01-17T02:36:02.823Z,5.09
2023-01-17T02:37:02.804Z,5.03
2023-01-17T02:38:02.802Z,5.06
2023-01-17T02:39:02.784Z,5.06
2023-01-17T02:40:02.777Z,5.00
2023-01-17T02:41:02.762Z,4.98
2023-01-17T02:42:02.761Z,5.00
2023-01-17T02:43:02.810Z,5.11
2023-01-17T02:44:02.734Z,5.12
2023-01-17T02:45:02.742Z,5.01
2023-01-17T02:46:02.732Z,5.09
2023-01-17T02:47:02.699Z,5.06
2023-01-17T02:48:02.687Z,5.15
2023-01-17T02:49:02.691Z,5.11
2023-01-17T02:50:02.680Z,5.04
2023-01-17T02:51:02.658Z,5.12
2023-01-17T02:52:02.661Z,5.04
2023-01-17T02:53:02.649Z,5.07
2023-01-17T02:54:02.617Z,5.06
2023-01-17T02:55:02.610Z,4.93
2023-01-17T02:56:02.590Z,5.06
2023-01-17T02:57:02.592Z,5.11
2023-01-17T02:58:02.592Z,4.97
2023-01-17T02:59:02.569Z,4.97
2023-01-17T03:00:02.575Z,4.97
2023-01-17T03:01:02.657Z,4.96
2023-01-17T03:02:02.857Z,4.98
2023-01-17T03:03:02.525Z,5.03
2023-01-17T03:04:02.505Z,4.88
2023-01-17T03:05:02.502Z,4.96
2023-01-17T03:06:02.491Z,5.01
2023-01-17T03:07:02.472Z,4.83
2023-01-17T03:08:02.470Z,4.83
2023-01-17T03:09:02.462Z,4.89
2023-01-17T03:10:02.446Z,4.93
2023-01-17T03:11:02.435Z,4.96
2023-01-17T03:12:02.417Z,5.01
2023-01-17T03:13:02.409Z,5.01
2023-01-17T03:14:02.425Z,5.01
2023-01-17T03:15:02.392Z,4.97
2023-01-17T03:16:02.381Z,4.94
2023-01-17T03:17:02.366Z,5.00
2023-01-17T03:18:02.360Z,4.97
2023-01-17T03:19:02.342Z,5.00
2023-01-17T03:20:02.338Z,4.91
2023-01-17T03:21:02.330Z,4.91
2023-01-17T03:22:02.310Z,4.89
2023-01-17T03:23:02.312Z,4.97
2023-01-17T03:24:02.291Z,4.97
2023-01-17T03:25:02.270Z,4.98
2023-01-17T03:26:02.268Z,5.00
2023-01-17T03:27:02.278Z,5.01
2023-01-17T03:28:02.244Z,4.88
2023-01-17T03:29:02.233Z,4.93
2023-01-17T03:30:02.223Z,5.00
2023-01-17T03:31:02.278Z,4.96
2023-01-17T03:32:02.191Z,4.98
2023-01-17T03:33:02.184Z,5.04
2023-01-17T03:34:02.190Z,4.88
2023-01-17T03:35:02.176Z,5.00
2023-01-17T03:36:02.170Z,4.91
2023-01-17T03:37:02.155Z,5.01
2023-01-17T03:38:02.129Z,5.01
2023-01-17T03:39:02.119Z,4.93
2023-01-17T03:40:02.116Z,4.86
2023-01-17T03:41:02.101Z,4.93
2023-01-17T03:42:02.083Z,4.85
2023-01-17T03:43:02.081Z,4.83
2023-01-17T03:44:02.066Z,4.96
2023-01-17T03:45:02.060Z,4.86
2023-01-17T03:46:02.111Z,4.83
2023-01-17T03:47:02.032Z,4.93
2023-01-17T03:48:02.037Z,4.94
2023-01-17T03:49:02.007Z,4.94
2023-01-17T03:50:02.000Z,4.96
2023-01-17T03:51:01.984Z,4.97
2023-01-17T03:52:01.978Z,4.98
2023-01-17T03:53:01.962Z,4.97
2023-01-17T03:54:01.965Z,4.96
2023-01-17T03:55:01.943Z,5.06
2023-01-17T03:56:01.933Z,4.93
2023-01-17T03:57:01.934Z,4.94
2023-01-17T03:58:01.912Z,4.93
2023-01-17T03:59:01.914Z,4.96
2023-01-17T04:00:01.886Z,4.93
2023-01-17T04:01:02.035Z,5.00
2023-01-17T04:02:01.982Z,5.04
2023-01-17T04:03:01.850Z,4.94
2023-01-17T04:04:01.844Z,4.98
2023-01-17T04:05:01.841Z,4.98
2023-01-17T04:06:01.820Z,4.98
2023-01-17T04:07:01.819Z,4.98
2023-01-17T04:08:01.802Z,4.96
2023-01-17T04:09:01.813Z,4.98
2023-01-17T04:10:01.785Z,4.89
2023-01-17T04:11:01.774Z,4.88
2023-01-17T04:12:01.754Z,4.97
2023-01-17T04:13:01.752Z,4.93
2023-01-17T04:14:01.738Z,4.96
2023-01-17T04:15:01.726Z,4.98
2023-01-17T04:16:01.713Z,4.98
2023-01-17T04:17:01.707Z,4.94
2023-01-17T04:18:01.689Z,4.96
2023-01-17T04:19:01.679Z,5.01
2023-01-17T04:20:01.672Z,4.98
2023-01-17T04:21:01.665Z,4.96
2023-01-17T04:22:01.655Z,5.11
2023-01-17T04:23:01.637Z,5.04
2023-01-17T04:24:01.624Z,4.93
2023-01-17T04:25:01.630Z,5.00
2023-01-17T04:26:01.601Z,4.97
2023-01-17T04:27:01.598Z,4.98
2023-01-17T04:28:01.588Z,4.89
2023-01-17T04:29:01.571Z,4.98
2023-01-17T04:30:01.579Z,4.91
2023-01-17T04:31:01.665Z,4.86
2023-01-17T04:32:01.545Z,4.86
2023-01-17T04:33:01.531Z,4.97
2023-01-17T04:34:01.526Z,4.91
2023-01-17T04:35:01.511Z,4.93
2023-01-17T04:36:01.491Z,4.86
2023-01-17T04:37:01.523Z,4.93
2023-01-17T04:38:01.478Z,4.88
2023-01-17T04:39:01.472Z,4.88
2023-01-17T04:40:01.463Z,4.93
2023-01-17T04:41:01.438Z,4.94
2023-01-17T04:42:01.430Z,4.97
2023-01-17T04:43:01.424Z,4.91
2023-01-17T04:44:01.394Z,4.93
2023-01-17T04:45:01.390Z,5.01
2023-01-17T04:46:01.422Z,4.91
2023-01-17T04:47:01.370Z,4.93
2023-01-17T04:48:01.378Z,4.89
2023-01-17T04:49:01.349Z,4.91
2023-01-17T04:50:01.344Z,4.88
2023-01-17T04:51:01.318Z,4.89
2023-01-17T04:52:01.312Z,4.88
2023-01-17T04:53:01.304Z,4.85
2023-01-17T04:54:01.298Z,4.86
2023-01-17T04:55:01.284Z,4.82
2023-01-17T04:56:01.290Z,4.82
2023-01-17T04:57:01.259Z,4.85
2023-01-17T04:58:01.246Z,4.85
2023-01-17T04:59:01.239Z,4.82
2023-01-17T05:00:01.222Z,4.86
2023-01-17T05:01:01.233Z,4.79
2023-01-17T05:02:01.282Z,4.78
2023-01-17T05:03:01.225Z,4.74
2023-01-17T05:04:01.191Z,4.67
2023-01-17T05:05:01.187Z,4.66
2023-01-17T05:06:01.157Z,4.82
2023-01-17T05:07:01.146Z,4.74
2023-01-17T05:08:01.158Z,4.61
2023-01-17T05:09:01.124Z,4.71
2023-01-17T05:10:01.156Z,4.71
2023-01-17T05:11:01.102Z,4.67
2023-01-17T05:12:01.090Z,4.71
2023-01-17T05:13:01.086Z,4.69
2023-01-17T05:14:01.084Z,4.56
2023-01-17T05:15:01.073Z,4.60
2023-01-17T05:16:01.085Z,4.54
2023-01-17T05:17:01.047Z,4.56
2023-01-17T05:18:01.016Z,4.46
2023-01-17T05:19:01.016Z,4.46
2023-01-17T05:20:01.004Z,4.43
2023-01-17T05:21:00.994Z,4.53
2023-01-17T05:22:00.984Z,4.46
2023-01-17T05:23:00.969Z,4.53
2023-01-17T05:24:00.966Z,4.53
2023-01-17T05:25:00.953Z,4.54
2023-01-17T05:26:00.945Z,4.41
2023-01-17T05:27:00.937Z,4.42
2023-01-17T05:28:00.918Z,4.41
2023-01-17T05:29:00.903Z,4.38
2023-01-17T05:30:00.884Z,4.42
2023-01-17T05:31:00.925Z,4.43
2023-01-17T05:32:00.868Z,4.39
2023-01-17T05:33:00.858Z,4.36
2023-01-17T05:34:00.839Z,4.42
2023-01-17T05:35:00.827Z,4.48
2023-01-17T05:36:00.827Z,4.49
2023-01-17T05:37:00.808Z,4.38
2023-01-17T05:38:00.802Z,4.39
2023-01-17T05:39:00.801Z,4.39
2023-01-17T05:40:00.780Z,4.41
2023-01-17T05:41:00.765Z,4.45
2023-01-17T05:42:00.757Z,4.39
2023-01-17T05:43:00.738Z,4.34
2023-01-17T05:44:00.735Z,4.35
2023-01-17T05:45:00.729Z,4.24
2023-01-17T05:46:00.751Z,4.31
2023-01-17T05:47:00.694Z,4.42
2023-01-17T05:48:00.692Z,4.43
2023-01-17T05:49:00.671Z,4.41
2023-01-17T05:50:00.673Z,4.41
2023-01-17T05:51:00.653Z,4.41
2023-01-17T05:52:00.643Z,4.36
2023-01-17T05:53:00.630Z,4.41
2023-01-17T05:54:00.621Z,4.39
2023-01-17T05:55:00.618Z,4.39
2023-01-17T05:56:00.654Z,4.31
2023-01-17T05:57:00.587Z,4.28
2023-01-17T05:58:00.586Z,4.23
2023-01-17T05:59:00.564Z,4.17
2023-01-17T06:00:00.548Z,3.98
2023-01-17T06:01:00.594Z,3.90
2023-01-17T06:02:00.538Z,3.82
2023-01-17T06:03:00.518Z,3.80
2023-01-17T06:04:00.511Z,3.87
2023-01-17T06:05:03.265Z,3.94
2023-01-17T06:06:00.483Z,3.96
2023-01-17T06:07:00.473Z,3.87
2023-01-17T06:08:00.467Z,3.91
2023-01-17T06:09:00.453Z,3.85
2023-01-17T06:10:00.443Z,3.82
2023-01-17T06:11:00.423Z,3.91
2023-01-17T06:12:00.436Z,3.92
2023-01-17T06:13:00.400Z,3.85
2023-01-17T06:14:00.389Z,3.96
2023-01-17T06:15:00.385Z,3.88
2023-01-17T06:16:00.423Z,3.94
2023-01-17T06:17:00.378Z,3.85
2023-01-17T06:18:00.346Z,3.90
2023-01-17T06:19:00.338Z,3.88
2023-01-17T06:20:00.339Z,4.00
2023-01-17T06:21:00.326Z,4.02
2023-01-17T06:22:00.311Z,4.03
2023-01-17T06:23:00.298Z,4.00
2023-01-17T06:24:01.838Z,4.08
2023-01-17T06:25:00.288Z,4.08
2023-01-17T06:26:00.260Z,4.08
2023-01-17T06:27:00.247Z,4.09
2023-01-17T06:28:00.240Z,4.23
2023-01-17T06:29:00.237Z,4.13
2023-01-17T06:30:00.218Z,4.26
2023-01-17T06:31:00.253Z,4.23
2023-01-17T06:32:01.681Z,4.23
2023-01-17T06:33:00.181Z,4.30
2023-01-17T06:34:00.174Z,4.20
2023-01-17T06:35:00.166Z,4.26
2023-01-17T06:36:00.147Z,4.23
2023-01-17T06:37:00.136Z,4.30
2023-01-17T06:38:00.132Z,4.24
2023-01-17T06:39:00.131Z,4.34
2023-01-17T06:40:00.127Z,4.27
2023-01-17T06:41:00.103Z,4.27
2023-01-17T06:42:00.114Z,4.26
2023-01-17T06:43:00.116Z,4.31
2023-01-17T06:44:00.074Z,4.12
2023-01-17T06:45:00.055Z,4.16
2023-01-17T06:46:00.038Z,4.23
2023-01-17T06:47:00.057Z,4.24
2023-01-17T06:48:00.024Z,4.30
2023-01-17T06:49:00.010Z,4.20
2023-01-17T06:49:59.999Z,4.26
2023-01-17T06:50:59.991Z,4.27
2023-01-17T06:51:59.997Z,4.21
2023-01-17T06:52:59.963Z,4.26
2023-01-17T06:53:59.955Z,4.34
2023-01-17T06:54:59.943Z,4.35
2023-01-17T06:55:59.926Z,4.30
2023-01-17T06:56:59.924Z,4.38
2023-01-17T06:57:59.950Z,4.31
2023-01-17T06:58:59.896Z,4.38
2023-01-17T06:59:59.880Z,4.30
2023-01-17T07:01:00.026Z,4.39
2023-01-17T07:01:59.865Z,4.46
2023-01-17T07:02:59.869Z,4.39
2023-01-17T07:03:59.910Z,4.43
2023-01-17T07:04:59.830Z,4.38
2023-01-17T07:05:59.824Z,4.41
2023-01-17T07:06:59.811Z,4.48
2023-01-17T07:07:59.804Z,4.45
2023-01-17T07:08:59.794Z,4.57
2023-01-17T07:09:59.780Z,4.57
2023-01-17T07:10:59.772Z,4.36
2023-01-17T07:11:59.761Z,4.18
2023-01-17T07:12:59.755Z,4.21
2023-01-17T07:13:59.739Z,4.21
2023-01-17T07:14:59.723Z,4.38
2023-01-17T07:15:59.721Z,4.27
2023-01-17T07:16:59.698Z,4.27
2023-01-17T07:17:59.696Z,4.39
2023-01-17T07:18:59.675Z,4.41
2023-01-17T07:19:59.678Z,4.46
2023-01-17T07:20:59.670Z,4.39
2023-01-17T07:21:59.651Z,4.46
2023-01-17T07:22:59.646Z,4.45
2023-01-17T07:23:59.635Z,4.48
2023-01-17T07:24:59.652Z,4.56
2023-01-17T07:25:59.647Z,4.51
2023-01-17T07:26:59.610Z,4.45
2023-01-17T07:27:59.580Z,4.35
2023-01-17T07:28:59.578Z,4.20
2023-01-17T07:29:59.562Z,4.27
2023-01-17T07:30:59.588Z,4.31
2023-01-17T07:31:59.543Z,4.34
2023-01-17T07:32:59.534Z,4.43
2023-01-17T07:33:59.534Z,4.35
2023-01-17T07:34:59.512Z,4.49
2023-01-17T07:35:59.498Z,4.41
2023-01-17T07:36:59.478Z,4.24
2023-01-17T07:37:59.483Z,4.34
2023-01-17T07:38:59.463Z,4.41
2023-01-17T07:39:59.452Z,4.43
2023-01-17T07:40:59.444Z,4.35
2023-01-17T07:41:59.431Z,4.39
2023-01-17T07:42:59.413Z,4.36
2023-01-17T07:43:59.412Z,4.46
2023-01-17T07:44:59.404Z,4.53
2023-01-17T07:46:01.344Z,4.48
2023-01-17T07:46:59.374Z,4.41
2023-01-17T07:47:59.364Z,4.39
2023-01-17T07:48:59.353Z,4.43
2023-01-17T07:49:59.348Z,4.38
2023-01-17T07:50:59.341Z,4.31
2023-01-17T07:51:59.325Z,4.42
2023-01-17T07:52:59.316Z,4.39
2023-01-17T07:53:59.298Z,4.36
2023-01-17T07:54:59.290Z,4.38
2023-01-17T07:55:59.271Z,4.45
2023-01-17T07:56:59.265Z,4.39
2023-01-17T07:58:00.758Z,4.26
2023-01-17T07:58:59.253Z,4.26
2023-01-17T07:59:59.237Z,4.23
2023-01-17T08:00:59.382Z,4.28
2023-01-17T08:01:59.311Z,4.36
2023-01-17T08:02:59.204Z,4.24
2023-01-17T08:03:59.304Z,4.18
2023-01-17T08:04:59.182Z,4.21
2023-01-17T08:05:59.191Z,4.10
2023-01-17T08:06:59.174Z,4.16
2023-01-17T08:07:59.155Z,4.24
2023-01-17T08:08:59.153Z,4.23
2023-01-17T08:09:59.128Z,4.20
2023-01-17T08:10:59.113Z,4.16
2023-01-17T08:11:59.103Z,4.20
2023-01-17T08:12:59.089Z,4.10
2023-01-17T08:13:59.091Z,3.98
2023-01-17T08:14:59.070Z,3.92
2023-01-17T08:15:59.060Z,3.85
2023-01-17T08:16:59.051Z,3.81
2023-01-17T08:17:59.042Z,3.80
2023-01-17T08:18:59.016Z,3.78
2023-01-17T08:19:59.017Z,3.73
2023-01-17T08:20:59.009Z,3.55
2023-01-17T08:21:58.992Z,3.62
2023-01-17T08:22:58.985Z,3.59
2023-01-17T08:23:58.974Z,3.51
2023-01-17T08:24:58.964Z,3.48
2023-01-17T08:25:58.951Z,3.56
2023-01-17T08:26:58.943Z,3.69
2023-01-17T08:27:58.949Z,3.67
2023-01-17T08:28:58.922Z,3.80
2023-01-17T08:29:58.907Z,3.78
2023-01-17T08:30:58.901Z,3.72
2023-01-17T08:31:58.888Z,3.76
2023-01-17T08:32:58.873Z,3.91
2023-01-17T08:33:58.879Z,3.92
2023-01-17T08:34:58.852Z,3.92
2023-01-17T08:35:58.909Z,4.03
2023-01-17T08:36:58.828Z,4.12
2023-01-17T08:37:58.812Z,4.13
2023-01-17T08:38:58.824Z,4.24
2023-01-17T08:39:58.803Z,4.24
2023-01-17T08:40:58.784Z,4.21
2023-01-17T08:41:58.780Z,4.26
2023-01-17T08:42:58.764Z,4.38
2023-01-17T08:43:58.747Z,4.42
2023-01-17T08:44:58.743Z,4.36
2023-01-17T08:45:58.763Z,4.43
2023-01-17T08:46:58.715Z,4.43
2023-01-17T08:47:58.706Z,4.42
2023-01-17T08:48:58.741Z,4.46
2023-01-17T08:49:58.683Z,4.49
2023-01-17T08:50:58.674Z,4.49
2023-01-17T08:51:58.668Z,4.53
2023-01-17T08:53:00.833Z,4.53
2023-01-17T08:53:58.645Z,4.51
2023-01-17T08:54:58.635Z,4.69
2023-01-17T08:55:58.636Z,4.67
2023-01-17T08:56:58.608Z,4.72
2023-01-17T08:57:58.602Z,4.67
2023-01-17T08:58:58.592Z,4.85
2023-01-17T08:59:58.574Z,4.74
2023-01-17T09:00:58.650Z,4.85
2023-01-17T09:01:58.683Z,4.75
2023-01-17T09:02:58.546Z,4.88
2023-01-17T09:03:58.544Z,4.97
2023-01-17T09:04:58.525Z,5.00
2023-01-17T09:05:58.513Z,4.89
2023-01-17T09:06:58.508Z,4.97
2023-01-17T09:07:58.492Z,5.04
2023-01-17T09:08:58.482Z,5.04
2023-01-17T09:09:58.466Z,5.15
2023-01-17T09:10:58.462Z,5.15
2023-01-17T09:11:58.451Z,5.21
2023-01-17T09:12:58.436Z,5.19
2023-01-17T09:13:58.429Z,5.21
2023-01-17T09:14:58.418Z,5.16
2023-01-17T09:15:58.410Z,5.18
2023-01-17T09:16:58.398Z,5.21
2023-01-17T09:17:58.388Z,5.18
2023-01-17T09:18:58.371Z,5.14
2023-01-17T09:19:58.360Z,5.11
2023-01-17T09:20:58.363Z,5.03
2023-01-17T09:21:58.344Z,5.09
2023-01-17T09:22:58.340Z,5.19
2023-01-17T09:23:58.492Z,5.15
2023-01-17T09:24:58.312Z,5.19
2023-01-17T09:25:58.320Z,5.24
2023-01-17T09:26:58.299Z,5.36
2023-01-17T09:27:58.293Z,5.33
2023-01-17T09:28:58.272Z,5.37
2023-01-17T09:29:58.266Z,5.37
2023-01-17T09:30:58.322Z,5.37
2023-01-17T09:31:58.246Z,5.36
2023-01-17T09:32:58.236Z,5.37
2023-01-17T09:33:58.234Z,5.41
2023-01-17T09:34:58.215Z,5.34
2023-01-17T09:35:58.206Z,5.41
2023-01-17T09:36:58.199Z,5.43
2023-01-17T09:37:58.190Z,5.47
2023-01-17T09:38:58.172Z,5.50
2023-01-17T09:39:58.225Z,5.57
2023-01-17T09:40:58.161Z,5.65
2023-01-17T09:41:58.154Z,5.77
2023-01-17T09:42:58.134Z,5.77
2023-01-17T09:43:58.129Z,5.88
2023-01-17T09:44:58.127Z,5.98
2023-01-17T09:45:58.169Z,6.11
2023-01-17T09:46:58.139Z,5.95
2023-01-17T09:47:58.092Z,5.84
2023-01-17T09:48:58.083Z,5.93
2023-01-17T09:49:58.072Z,5.82
2023-01-17T09:50:58.063Z,5.88
2023-01-17T09:51:58.053Z,5.94
2023-01-17T09:52:58.043Z,5.98
2023-01-17T09:53:58.038Z,6.02
2023-01-17T09:54:58.019Z,5.82
2023-01-17T09:55:58.019Z,5.90
2023-01-17T09:56:58.010Z,5.91
2023-01-17T09:57:58.002Z,5.88
2023-01-17T09:58:57.988Z,5.90
2023-01-17T10:00:03.234Z,5.90
2023-01-17T10:00:58.038Z,5.90
2023-01-17T10:01:58.132Z,5.95
2023-01-17T10:02:58.068Z,6.02
2023-01-17T10:03:58.011Z,6.12
2023-01-17T10:04:57.972Z,6.06
2023-01-17T10:05:57.945Z,6.12
2023-01-17T10:06:57.926Z,6.05
2023-01-17T10:07:57.908Z,6.02
2023-01-17T10:08:57.900Z,5.93
2023-01-17T10:09:57.897Z,5.93
2023-01-17T10:10:57.883Z,5.72
2023-01-17T10:11:57.866Z,5.73
2023-01-17T10:12:57.868Z,5.82
2023-01-17T10:13:57.858Z,5.82
2023-01-17T10:14:57.850Z,5.80
2023-01-17T10:15:59.462Z,5.90
2023-01-17T10:16:57.840Z,5.90
2023-01-17T10:17:57.814Z,5.85
2023-01-17T10:18:57.807Z,5.90
2023-01-17T10:19:57.799Z,5.93
2023-01-17T10:20:57.795Z,5.85
2023-01-17T10:21:57.785Z,5.93
2023-01-17T10:22:57.777Z,5.90
2023-01-17T10:23:57.760Z,5.90
2023-01-17T10:24:57.762Z,5.87
2023-01-17T10:25:57.734Z,5.77
2023-01-17T10:26:57.739Z,5.79
2023-01-17T10:27:57.737Z,5.80
2023-01-17T10:28:57.718Z,5.82
2023-01-17T10:29:57.706Z,5.88
2023-01-17T10:30:57.793Z,6.05
2023-01-17T10:31:57.697Z,6.08
2023-01-17T10:32:57.674Z,6.08
2023-01-17T10:33:57.681Z,6.15
2023-01-17T10:34:57.667Z,6.16
2023-01-17T10:35:57.652Z,6.13
2023-01-17T10:36:57.643Z,6.16
2023-01-17T10:37:57.637Z,6.28
2023-01-17T10:38:57.634Z,6.30
2023-01-17T10:39:57.653Z,6.31
2023-01-17T10:40:57.605Z,6.28
2023-01-17T10:41:57.603Z,6.38
2023-01-17T10:42:57.601Z,6.35
2023-01-17T10:43:57.585Z,6.40
2023-01-17T10:44:57.580Z,6.40
2023-01-17T10:45:57.588Z,6.32
2023-01-17T10:46:57.564Z,6.24
2023-01-17T10:47:57.547Z,6.35
2023-01-17T10:48:57.540Z,6.52
2023-01-17T10:49:57.533Z,6.96
2023-01-17T10:50:57.517Z,7.43
2023-01-17T10:51:57.517Z,7.87
2023-01-17T10:52:57.516Z,7.98
2023-01-17T10:53:57.497Z,8.06
2023-01-17T10:54:57.492Z,7.87
2023-01-17T10:55:57.485Z,7.78
2023-01-17T10:56:57.476Z,7.68
2023-01-17T10:57:57.467Z,7.69
2023-01-17T10:58:57.468Z,7.60
2023-01-17T10:59:57.457Z,7.50
2023-01-17T11:00:57.483Z,7.52
2023-01-17T11:01:57.511Z,7.49
2023-01-17T11:02:57.490Z,7.33
2023-01-17T11:03:57.420Z,7.40
2023-01-17T11:04:57.431Z,7.34
2023-01-17T11:05:57.410Z,7.57
2023-01-17T11:06:58.459Z,7.98
2023-01-17T11:07:57.404Z,8.24
2023-01-17T11:08:57.411Z,8.56
2023-01-17T11:09:57.386Z,8.78
2023-01-17T11:10:57.379Z,8.96
2023-01-17T11:11:57.372Z,9.14
2023-01-17T11:12:57.368Z,8.81
2023-01-17T11:13:57.359Z,8.90
2023-01-17T11:14:57.360Z,9.33
2023-01-17T11:15:57.396Z,9.62
2023-01-17T11:16:57.349Z,9.83
2023-01-17T11:17:57.330Z,10.01
2023-01-17T11:18:57.331Z,9.85
2023-01-17T11:19:57.320Z,9.59
2023-01-17T11:20:57.338Z,9.33
2023-01-17T11:21:57.319Z,9.18
2023-01-17T11:22:57.312Z,9.48
2023-01-17T11:23:57.312Z,9.78
2023-01-17T11:24:57.301Z,10.27
2023-01-17T11:25:57.297Z,10.64
2023-01-17T11:26:57.293Z,10.75
2023-01-17T11:27:57.275Z,10.79
2023-01-17T11:28:57.282Z,10.85
2023-01-17T11:29:57.270Z,10.87
2023-01-17T11:30:57.332Z,11.05
2023-01-17T11:31:57.280Z,11.25
2023-01-17T11:32:57.255Z,11.28
2023-01-17T11:33:57.264Z,11.41
2023-01-17T11:34:57.250Z,11.04
2023-01-17T11:35:57.246Z,11.03
2023-01-17T11:36:57.241Z,11.20
2023-01-17T11:37:57.237Z,11.46
2023-01-17T11:38:57.276Z,11.59
2023-01-17T11:39:57.235Z,11.52
2023-01-17T11:40:57.232Z,11.46
2023-01-17T11:41:57.225Z,11.34
2023-01-17T11:42:57.217Z,11.28
2023-01-17T11:43:57.218Z,11.37
2023-01-17T11:44:57.218Z,11.45
2023-01-17T11:45:57.242Z,11.77
2023-01-17T11:46:57.206Z,11.84
2023-01-17T11:47:57.196Z,11.54
2023-01-17T11:48:57.197Z,11.27
2023-01-17T11:49:57.193Z,11.28
2023-01-17T11:50:57.193Z,11.89
2023-01-17T11:51:57.181Z,11.82
2023-01-17T11:52:57.177Z,11.95
2023-01-17T11:53:57.186Z,12.22
2023-01-17T11:54:57.174Z,12.54
2023-01-17T11:55:57.171Z,12.77
2023-01-17T11:56:57.173Z,12.93
2023-01-17T11:57:57.164Z,13.08
2023-01-17T11:58:57.160Z,12.76
2023-01-17T11:59:57.153Z,12.43
2023-01-17T12:00:57.191Z,12.40
2023-01-17T12:01:57.149Z,12.38
2023-01-17T12:02:57.142Z,12.65
2023-01-17T12:03:57.196Z,12.80
2023-01-17T12:04:57.169Z,12.65
2023-01-17T12:05:57.132Z,12.47
2023-01-17T12:06:58.258Z,12.65
2023-01-17T12:07:57.134Z,12.59
2023-01-17T12:08:57.124Z,12.69
2023-01-17T12:09:57.125Z,12.58
2023-01-17T12:10:57.115Z,12.66
2023-01-17T12:11:57.113Z,12.95
2023-01-17T12:12:57.109Z,12.88
2023-01-17T12:13:57.105Z,12.86
2023-01-17T12:14:57.136Z,12.90
2023-01-17T12:15:57.127Z,13.21
2023-01-17T12:16:57.095Z,13.39
2023-01-17T12:17:57.099Z,13.02
2023-01-17T12:18:57.091Z,13.06
2023-01-17T12:19:57.100Z,13.26
2023-01-17T12:20:57.084Z,13.47
2023-01-17T12:21:57.081Z,13.86
2023-01-17T12:22:57.082Z,13.98
2023-01-17T12:23:57.078Z,13.97
2023-01-17T12:24:57.078Z,13.79
2023-01-17T12:25:57.071Z,12.91
2023-01-17T12:26:57.074Z,13.49
2023-01-17T12:27:57.061Z,13.21
2023-01-17T12:28:57.057Z,12.93
2023-01-17T12:29:57.056Z,13.11
2023-01-17T12:30:57.076Z,12.51
2023-01-17T12:31:57.045Z,12.22
2023-01-17T12:32:57.047Z,12.23
2023-01-17T12:33:57.046Z,11.82
2023-01-17T12:34:57.041Z,11.59
2023-01-17T12:35:57.115Z,11.82
2023-01-17T12:36:57.034Z,12.05
2023-01-17T12:38:04.691Z,12.55
2023-01-17T12:38:57.034Z,12.54
2023-01-17T12:39:57.022Z,12.62
2023-01-17T12:40:57.014Z,12.77
2023-01-17T12:41:57.015Z,12.81
2023-01-17T12:42:57.014Z,12.46
2023-01-17T12:43:57.008Z,11.76
2023-01-17T12:44:57.005Z,11.11
2023-01-17T12:45:57.006Z,11.13
2023-01-17T12:46:57.043Z,10.72
2023-01-17T12:47:57.001Z,10.73
2023-01-17T12:48:56.998Z,10.17
2023-01-17T12:49:56.979Z,10.05
2023-01-17T12:50:56.995Z,9.87
2023-01-17T12:51:56.979Z,9.72
2023-01-17T12:52:56.978Z,9.77
2023-01-17T12:53:56.977Z,9.59
2023-01-17T12:54:56.971Z,9.47
2023-01-17T12:55:56.966Z,8.99
2023-01-17T12:56:56.955Z,8.98
2023-01-17T12:57:56.943Z,8.92
2023-01-17T12:58:56.945Z,8.92
2023-01-17T12:59:56.946Z,9.03
2023-01-17T13:00:57.040Z,8.78
2023-01-17T13:01:57.007Z,8.56
2023-01-17T13:02:56.942Z,8.52
2023-01-17T13:03:57.829Z,8.39
2023-01-17T13:04:58.762Z,8.47
2023-01-17T13:05:56.920Z,8.31
2023-01-17T13:06:56.917Z,8.42
2023-01-17T13:07:56.909Z,8.55
2023-01-17T13:08:56.905Z,8.49
2023-01-17T13:09:56.901Z,8.26
2023-01-17T13:10:56.903Z,8.05
2023-01-17T13:11:56.887Z,8.05
2023-01-17T13:12:56.890Z,8.09
2023-01-17T13:13:56.881Z,7.99
2023-01-17T13:14:56.879Z,7.83